Time;durP1;ratioP1;P1;durP2;ratioP2;P2;SDS_P1;SDS_P2;PMS_P1;PMS_P2;Temp;Humidity;BMP_temperature;BMP_pressure;BME280_temperature;BME280_humidity;BME280_pressure;Samples;Min_cycle;Max_cycle;Signal;HPM_P1;HPM_P2
2022/02/02 00:01:54;;;;;;;;;;;5.30;99.90;;;;;;6159541;23;19915;-88
2022/02/02 00:04:27;;;;;;;;;;;5.30;99.90;;;;;;6205834;23;20297;-90
2022/02/02 00:09:28;;;;;;;;;;;5.40;99.90;;;;;;6207071;23;19927;-89
2022/02/02 00:17:11;;;;;;;;;;;5.40;99.90;;;;;;6203993;23;20253;-87
2022/02/02 00:19:57;;;;;;;;;;;5.50;99.90;;;;;;6179520;23;20257;-90
2022/02/02 00:22:33;;;;;;;;;;;5.50;99.90;;;;;;6204875;23;19969;-90
2022/02/02 00:27:32;;;;;;;;;;;5.50;99.90;;;;;;6207812;23;20386;-89
2022/02/02 00:30:01;;;;;;;;;;;5.60;99.90;;;;;;6181764;23;20336;-89
2022/02/02 00:35:20;;;;;;;;;;;5.60;99.90;;;;;;6151052;23;20241;-89
2022/02/02 00:37:52;;;;;;;;;;;5.60;99.90;;;;;;6157081;23;19923;-88
2022/02/02 00:40:18;;;;;;;;;;;5.50;99.90;;;;;;6205310;23;19919;-85
2022/02/02 00:42:48;;;;;;;;;;;5.60;99.90;;;;;;6182592;23;19922;-85
2022/02/02 00:45:20;;;;;;;;;;;5.60;99.90;;;;;;6159553;23;20378;-90
2022/02/02 00:47:51;;;;;;;;;;;5.60;99.90;;;;;;6206529;23;20448;-87
2022/02/02 00:50:18;;;;;;;;;;;5.70;99.90;;;;;;6205803;23;19920;-89
2022/02/02 00:52:51;;;;;;;;;;;5.70;99.90;;;;;;6205876;23;19994;-90
2022/02/02 00:55:17;;;;;;;;;;;5.70;99.90;;;;;;6179893;23;19990;-89
2022/02/02 00:57:43;;;;;;;;;;;5.70;99.90;;;;;;6152622;23;20367;-87
2022/02/02 01:00:10;;;;;;;;;;;5.70;99.90;;;;;;6177456;23;19931;-91
2022/02/02 01:02:36;;;;;;;;;;;5.70;99.90;;;;;;6178185;23;19916;-88
2022/02/02 01:05:17;;;;;;;;;;;5.70;99.90;;;;;;6153995;23;19920;-88
2022/02/02 01:14:32;;;;;;;;;;;5.70;99.90;;;;;;6184026;23;20027;-88
2022/02/02 01:22:18;;;;;;;;;;;5.80;99.90;;;;;;6204829;23;19920;-89
2022/02/02 01:30:00;;;;;;;;;;;5.80;99.90;;;;;;6198378;23;20358;-86
2022/02/02 01:32:26;;;;;;;;;;;5.90;99.90;;;;;;6169262;23;19970;-88
2022/02/02 01:34:53;;;;;;;;;;;6.00;99.90;;;;;;6170918;23;19931;-90
2022/02/02 01:37:22;;;;;;;;;;;6.00;99.90;;;;;;6174061;23;20296;-87
2022/02/02 01:39:55;;;;;;;;;;;5.90;99.90;;;;;;6174821;23;19920;-89
2022/02/02 01:42:22;;;;;;;;;;;5.90;99.90;;;;;;6173250;23;19916;-85
2022/02/02 01:44:52;;;;;;;;;;;5.80;99.90;;;;;;6147938;23;19920;-89
2022/02/02 01:47:17;;;;;;;;;;;5.80;99.90;;;;;;6151413;23;19934;-87
2022/02/02 01:54:56;;;;;;;;;;;5.70;99.90;;;;;;6201277;23;20211;-87
2022/02/02 02:00:04;;;;;;;;;;;5.60;99.90;;;;;;6205482;23;20175;-90
2022/02/02 02:02:30;;;;;;;;;;;5.60;99.90;;;;;;6152571;23;20245;-87
2022/02/02 02:04:55;;;;;;;;;;;5.60;99.90;;;;;;6155676;23;19962;-89
2022/02/02 02:07:22;;;;;;;;;;;5.60;99.90;;;;;;6156042;23;19923;-85
2022/02/02 02:09:47;;;;;;;;;;;5.60;99.90;;;;;;6156591;23;19927;-89
2022/02/02 02:12:13;;;;;;;;;;;5.60;99.90;;;;;;6155653;23;19931;-85
2022/02/02 02:14:47;;;;;;;;;;;5.60;99.90;;;;;;6181276;23;19942;-91
2022/02/02 02:17:13;;;;;;;;;;;5.70;99.90;;;;;;6157095;23;19915;-85
2022/02/02 02:19:43;;;;;;;;;;;5.70;99.90;;;;;;6178326;23;19977;-90
2022/02/02 02:22:12;;;;;;;;;;;5.60;99.90;;;;;;6155280;23;20355;-91
2022/02/02 02:24:40;;;;;;;;;;;5.60;99.90;;;;;;6180318;23;19925;-90
2022/02/02 02:27:06;;;;;;;;;;;5.60;99.90;;;;;;6158118;23;19919;-90
2022/02/02 02:29:56;;;;;;;;;;;5.60;99.90;;;;;;6180439;23;19962;-87
2022/02/02 02:40:26;;;;;;;;;;;5.70;99.90;;;;;;6179748;23;19927;-85
2022/02/02 02:56:43;;;;;;;;;;;5.60;99.90;;;;;;6176587;23;20363;-89
2022/02/02 02:59:14;;;;;;;;;;;5.60;99.90;;;;;;6173723;23;20341;-88
2022/02/02 03:02:14;;;;;;;;;;;5.70;99.90;;;;;;6176463;23;19920;-86
2022/02/02 04:01:49;;;;;;;;;;;5.50;99.90;;;;;;6199764;23;20862;-86
2022/02/02 04:07:04;;;;;;;;;;;5.40;99.90;;;;;;6175437;23;20371;-90
2022/02/02 04:09:34;;;;;;;;;;;5.40;99.90;;;;;;6154845;23;19946;-88
2022/02/02 04:12:38;;;;;;;;;;;5.40;99.90;;;;;;6200546;23;19920;-88
2022/02/02 04:51:19;;;;;;;;;;;5.30;99.90;;;;;;6199734;23;20230;-87
2022/02/02 04:55:43;;;;;;;;;;;5.40;99.90;;;;;;6174277;23;19916;-86
2022/02/02 04:58:22;;;;;;;;;;;5.40;99.90;;;;;;6149411;23;19920;-88
2022/02/02 05:03:48;;;;;;;;;;;5.40;99.90;;;;;;6173889;23;20182;-89
2022/02/02 05:20:02;;;;;;;;;;;5.40;99.90;;;;;;6174983;23;19987;-87
2022/02/02 05:52:14;;;;;;;;;;;5.40;99.90;;;;;;6192431;23;20397;-86
2022/02/02 05:54:40;;;;;;;;;;;5.40;99.90;;;;;;6170512;23;19920;-86
2022/02/02 05:57:11;;;;;;;;;;;5.40;99.90;;;;;;6197184;23;19915;-86
2022/02/02 05:59:39;;;;;;;;;;;5.40;99.90;;;;;;6176264;23;19923;-87
2022/02/02 06:02:07;;;;;;;;;;;5.40;99.90;;;;;;6200229;23;19969;-86
2022/02/02 06:04:33;;;;;;;;;;;5.40;99.90;;;;;;6199375;23;19919;-88
2022/02/02 06:07:01;;;;;;;;;;;5.40;99.90;;;;;;6147355;23;19994;-86
2022/02/02 06:09:33;;;;;;;;;;;5.40;99.90;;;;;;6150757;23;19923;-88
2022/02/02 06:11:59;;;;;;;;;;;5.40;99.90;;;;;;6172751;23;19947;-85
2022/02/02 06:14:26;;;;;;;;;;;5.40;99.90;;;;;;6175903;23;19931;-86
2022/02/02 06:16:53;;;;;;;;;;;5.40;99.90;;;;;;6179893;23;19939;-86
2022/02/02 06:19:19;;;;;;;;;;;5.30;99.90;;;;;;6154754;23;20037;-85
2022/02/02 06:21:50;;;;;;;;;;;5.40;99.90;;;;;;6152993;23;19923;-87
2022/02/02 06:24:19;;;;;;;;;;;5.40;99.90;;;;;;6203213;23;20253;-85
2022/02/02 06:26:48;;;;;;;;;;;5.40;99.90;;;;;;6174801;23;20296;-85
2022/02/02 06:29:15;;;;;;;;;;;5.30;99.90;;;;;;6150228;23;19970;-87
2022/02/02 06:31:42;;;;;;;;;;;5.30;99.90;;;;;;6177248;23;19916;-86
2022/02/02 06:34:12;;;;;;;;;;;5.30;99.90;;;;;;6203817;23;19924;-85
2022/02/02 06:36:39;;;;;;;;;;;5.30;99.90;;;;;;6175967;23;20259;-85
2022/02/02 06:39:06;;;;;;;;;;;5.20;99.90;;;;;;6179687;23;19916;-86
2022/02/02 06:41:32;;;;;;;;;;;5.20;99.90;;;;;;6201917;23;20408;-88
2022/02/02 06:43:58;;;;;;;;;;;5.20;99.90;;;;;;6197865;23;19922;-86
2022/02/02 06:46:28;;;;;;;;;;;5.20;99.90;;;;;;6175420;23;19998;-85
2022/02/02 06:48:54;;;;;;;;;;;5.20;99.90;;;;;;6198673;23;19930;-86
2022/02/02 06:51:28;;;;;;;;;;;5.20;99.90;;;;;;6202582;23;19919;-86
2022/02/02 06:54:03;;;;;;;;;;;5.20;99.90;;;;;;6174749;23;19920;-87
2022/02/02 06:56:45;;;;;;;;;;;5.20;99.90;;;;;;6169010;23;20146;-85
2022/02/02 07:05:16;;;;;;;;;;;5.20;99.90;;;;;;6196881;23;19943;-85
2022/02/02 07:10:26;;;;;;;;;;;5.20;99.90;;;;;;6194357;23;20063;-86
2022/02/02 07:18:39;;;;;;;;;;;5.10;99.90;;;;;;6173571;23;20391;-87
2022/02/02 07:24:06;;;;;;;;;;;5.10;99.90;;;;;;6198136;23;19926;-86
2022/02/02 07:29:08;;;;;;;;;;;5.20;99.90;;;;;;6169500;23;19923;-85
2022/02/02 07:34:42;;;;;;;;;;;5.30;99.90;;;;;;6157867;23;19919;-86
2022/02/02 07:37:11;;;;;;;;;;;5.40;99.90;;;;;;6196153;23;19950;-88
2022/02/02 07:39:38;;;;;;;;;;;5.40;99.90;;;;;;6168327;23;19959;-87
2022/02/02 07:42:07;;;;;;;;;;;5.40;99.90;;;;;;6170070;23;20058;-86
2022/02/02 07:44:35;;;;;;;;;;;5.50;99.90;;;;;;6170583;23;19982;-87
2022/02/02 07:47:06;;;;;;;;;;;5.50;99.90;;;;;;6168983;23;20030;-86
2022/02/02 07:49:35;;;;;;;;;;;5.50;99.90;;;;;;6145316;23;19924;-87
2022/02/02 07:52:01;;;;;;;;;;;5.60;99.90;;;;;;6168572;23;20220;-87
2022/02/02 07:54:33;;;;;;;;;;;5.60;99.90;;;;;;6167472;23;19920;-85
2022/02/02 07:56:59;;;;;;;;;;;5.70;99.90;;;;;;6169428;23;19919;-87
2022/02/02 08:00:16;;;;;;;;;;;5.80;99.90;;;;;;6171745;23;19949;-86
2022/02/02 08:02:18;;;;;;;;;;;5.70;99.90;;;;;;6181243;23;20025;-85
2022/02/02 08:04:43;;;;;;;;;;;5.80;99.90;;;;;;6175034;23;20376;-86
2022/02/02 08:07:13;;;;;;;;;;;5.80;99.90;;;;;;6172900;23;19919;-87
2022/02/02 08:09:45;;;;;;;;;;;5.80;99.90;;;;;;6148388;23;20001;-88
2022/02/02 08:12:16;;;;;;;;;;;5.80;99.90;;;;;;6174206;23;20258;-86
2022/02/02 08:14:43;;;;;;;;;;;5.80;99.90;;;;;;6173240;23;20291;-87
2022/02/02 08:17:09;;;;;;;;;;;5.80;99.90;;;;;;6175993;23;20407;-86
2022/02/02 08:19:37;;;;;;;;;;;5.90;99.90;;;;;;6201949;23;19919;-86
2022/02/02 08:22:02;;;;;;;;;;;5.90;99.90;;;;;;6149605;23;19920;-86
2022/02/02 08:24:28;;;;;;;;;;;5.90;99.90;;;;;;6147755;23;20293;-85
2022/02/02 08:26:55;;;;;;;;;;;5.90;99.90;;;;;;6147695;23;20508;-86
2022/02/02 08:29:25;;;;;;;;;;;5.90;99.90;;;;;;6198634;23;20253;-88
2022/02/02 08:31:51;;;;;;;;;;;6.00;99.90;;;;;;6198669;23;20715;-87
2022/02/02 08:34:17;;;;;;;;;;;6.00;99.90;;;;;;6173270;23;20298;-86
2022/02/02 08:36:47;;;;;;;;;;;6.00;99.90;;;;;;6174141;23;19923;-87
2022/02/02 08:39:22;;;;;;;;;;;6.00;99.90;;;;;;6197506;23;19920;-87
2022/02/02 08:41:52;;;;;;;;;;;5.90;99.90;;;;;;6149122;23;19946;-87
2022/02/02 08:44:23;;;;;;;;;;;5.90;99.90;;;;;;6176191;23;19919;-85
2022/02/02 08:47:08;;;;;;;;;;;5.90;99.90;;;;;;6181427;23;19922;-86
2022/02/02 08:49:41;;;;;;;;;;;5.90;99.90;;;;;;6178256;23;19972;-86
2022/02/02 08:52:07;;;;;;;;;;;5.90;99.90;;;;;;6155931;23;20170;-86
2022/02/02 08:54:45;;;;;;;;;;;6.00;99.90;;;;;;6177708;23;19920;-88
2022/02/02 08:59:57;;;;;;;;;;;6.10;99.90;;;;;;6199435;23;19928;-87
2022/02/02 09:02:28;;;;;;;;;;;6.20;99.90;;;;;;6200505;23;19926;-87
2022/02/02 09:07:38;;;;;;;;;;;6.30;99.90;;;;;;6199335;23;19924;-85
2022/02/02 09:23:59;;;;;;;;;;;6.30;99.90;;;;;;6126365;23;19923;-86
2022/02/02 09:31:26;;;;;;;;;;;6.40;99.90;;;;;;6173451;23;19923;-85
2022/02/02 09:34:22;;;;;;;;;;;6.70;99.90;;;;;;6174831;23;20366;-85
2022/02/02 09:36:48;;;;;;;;;;;6.80;99.90;;;;;;6156639;23;20295;-88
2022/02/02 09:39:31;;;;;;;;;;;6.90;99.90;;;;;;6177412;23;19923;-85
2022/02/02 09:42:13;;;;;;;;;;;6.90;99.90;;;;;;6152538;23;19938;-87
2022/02/02 09:44:41;;;;;;;;;;;7.00;99.90;;;;;;6177903;23;19924;-86
2022/02/02 09:47:19;;;;;;;;;;;7.00;99.90;;;;;;6153700;23;19927;-88
2022/02/02 09:50:11;;;;;;;;;;;7.00;99.90;;;;;;6175065;23;19922;-88
2022/02/02 09:52:42;;;;;;;;;;;7.00;99.90;;;;;;6177806;23;19927;-87
2022/02/02 10:00:19;;;;;;;;;;;7.00;99.90;;;;;;6178170;23;19931;-88
2022/02/02 10:05:35;;;;;;;;;;;7.10;99.90;;;;;;6199863;23;19947;-87
2022/02/02 10:15:57;;;;;;;;;;;7.00;99.90;;;;;;6201438;23;19920;-88
2022/02/02 10:18:32;;;;;;;;;;;7.00;99.90;;;;;;6199929;23;19926;-86
2022/02/02 10:20:57;;;;;;;;;;;6.90;99.90;;;;;;6203882;23;19924;-86
2022/02/02 10:23:33;;;;;;;;;;;7.00;99.90;;;;;;6178812;23;19991;-87
2022/02/02 10:26:13;;;;;;;;;;;7.00;99.90;;;;;;6177443;23;20010;-88
2022/02/02 10:28:39;;;;;;;;;;;7.00;99.90;;;;;;6176689;23;19919;-87
2022/02/02 10:31:06;;;;;;;;;;;7.00;99.90;;;;;;6177966;23;20876;-86
2022/02/02 10:33:33;;;;;;;;;;;7.10;99.90;;;;;;6177017;23;19993;-86
2022/02/02 10:36:11;;;;;;;;;;;7.20;99.90;;;;;;6177061;23;19938;-89
2022/02/02 10:38:49;;;;;;;;;;;7.30;99.90;;;;;;6178517;23;19920;-87
2022/02/02 10:44:40;;;;;;;;;;;7.50;99.90;;;;;;6204387;23;19927;-88
2022/02/02 10:47:36;;;;;;;;;;;7.50;99.90;;;;;;6173911;23;19922;-88
2022/02/02 10:50:35;;;;;;;;;;;7.60;99.90;;;;;;6202405;23;20400;-90
2022/02/02 10:53:30;;;;;;;;;;;7.70;99.90;;;;;;6183887;23;19927;-86
2022/02/02 10:56:31;;;;;;;;;;;7.80;99.90;;;;;;6208040;23;19989;-88
2022/02/02 10:59:26;;;;;;;;;;;7.90;99.90;;;;;;6162498;23;19926;-88
2022/02/02 11:07:15;;;;;;;;;;;8.00;99.90;;;;;;6207128;23;19931;-86
2022/02/02 11:09:47;;;;;;;;;;;8.00;99.90;;;;;;6203917;23;20013;-87
2022/02/02 11:12:15;;;;;;;;;;;7.90;99.90;;;;;;6176064;23;19923;-87
2022/02/02 11:14:40;;;;;;;;;;;7.90;99.90;;;;;;6171621;23;20428;-87
2022/02/02 11:17:20;;;;;;;;;;;7.80;99.90;;;;;;6202408;23;20001;-87
2022/02/02 11:19:48;;;;;;;;;;;7.70;99.90;;;;;;6176988;23;20028;-91
2022/02/02 11:22:31;;;;;;;;;;;7.70;99.90;;;;;;6177129;23;20312;-87
2022/02/02 11:25:03;;;;;;;;;;;7.70;99.90;;;;;;6180380;23;19916;-87
2022/02/02 11:27:37;;;;;;;;;;;7.80;99.90;;;;;;6201655;23;19920;-85
2022/02/02 11:30:07;;;;;;;;;;;7.90;99.90;;;;;;6177060;23;19920;-85
2022/02/02 11:33:02;;;;;;;;;;;7.90;99.90;;;;;;6201686;23;19943;-87
2022/02/02 11:38:17;;;;;;;;;;;8.20;99.90;;;;;;6202493;23;19934;-88
2022/02/02 11:41:01;;;;;;;;;;;8.40;99.90;;;;;;6173891;23;19931;-88
2022/02/02 11:43:46;;;;;;;;;;;8.60;99.90;;;;;;6199019;23;19919;-85
2022/02/02 11:46:32;;;;;;;;;;;8.70;99.90;;;;;;6199548;23;19977;-86
2022/02/02 11:49:03;;;;;;;;;;;8.70;99.90;;;;;;6200091;23;19920;-87
2022/02/02 11:51:46;;;;;;;;;;;8.60;99.90;;;;;;6177283;23;19993;-86
2022/02/02 11:54:16;;;;;;;;;;;8.50;99.90;;;;;;6200028;23;20285;-88
2022/02/02 11:57:01;;;;;;;;;;;8.60;99.90;;;;;;6180074;23;19951;-87
2022/02/02 11:59:51;;;;;;;;;;;8.60;99.90;;;;;;6204242;23;19916;-87
2022/02/02 12:02:24;;;;;;;;;;;8.70;99.90;;;;;;6204622;23;19987;-91
2022/02/02 12:05:22;;;;;;;;;;;8.80;99.90;;;;;;6185458;23;19916;-90
2022/02/02 12:08:05;;;;;;;;;;;8.80;99.90;;;;;;6183663;23;19919;-88
2022/02/02 12:49:10;;;;;;;;;;;8.80;99.90;;;;;;6209699;23;19919;-87
2022/02/02 12:56:54;;;;;;;;;;;9.50;99.90;;;;;;6204874;23;20348;-86
2022/02/02 13:02:04;;;;;;;;;;;9.60;99.90;;;;;;6208860;23;19915;-89
2022/02/02 13:04:31;;;;;;;;;;;9.50;99.90;;;;;;6211356;23;19916;-87
2022/02/02 13:07:08;;;;;;;;;;;9.30;99.90;;;;;;6182849;23;19916;-87
2022/02/02 13:09:34;;;;;;;;;;;9.30;99.90;;;;;;6184305;23;19916;-87
2022/02/02 13:12:16;;;;;;;;;;;9.20;99.90;;;;;;6186564;23;19932;-88
2022/02/02 13:14:58;;;;;;;;;;;9.10;99.90;;;;;;6188289;23;19923;-85
2022/02/02 13:17:24;;;;;;;;;;;9.10;99.90;;;;;;6162377;23;20305;-85
2022/02/02 13:19:57;;;;;;;;;;;9.10;99.90;;;;;;6160577;23;19922;-87
2022/02/02 13:22:23;;;;;;;;;;;9.10;99.90;;;;;;6159326;23;19920;-88
2022/02/02 13:24:49;;;;;;;;;;;9.00;99.90;;;;;;6160377;23;20299;-87
2022/02/02 13:27:18;;;;;;;;;;;8.90;99.90;;;;;;6185215;23;20312;-86
2022/02/02 13:29:49;;;;;;;;;;;8.90;99.90;;;;;;6159038;23;19945;-87
2022/02/02 13:32:20;;;;;;;;;;;8.90;99.90;;;;;;6183409;23;19919;-88
2022/02/02 13:37:26;;;;;;;;;;;8.90;99.90;;;;;;6207099;23;20150;-85
2022/02/02 13:56:30;;;;;;;;;;;9.30;99.90;;;;;;6207527;23;19951;-85
2022/02/02 14:01:32;;;;;;;;;;;9.40;99.90;;;;;;6208894;23;19920;-85
2022/02/02 14:09:09;;;;;;;;;;;9.40;99.90;;;;;;6206217;23;19938;-85
2022/02/02 14:33:26;;;;;;;;;;;9.20;99.90;;;;;;6189998;23;20245;-84
2022/02/02 14:35:57;;;;;;;;;;;9.10;99.90;;;;;;6210275;23;19943;-85
2022/02/02 14:38:22;;;;;;;;;;;9.10;99.90;;;;;;6161578;23;19915;-84
2022/02/02 14:43:32;;;;;;;;;;;9.10;99.90;;;;;;6208565;23;20442;-85
2022/02/02 14:46:01;;;;;;;;;;;9.10;99.90;;;;;;6181701;23;20162;-83
2022/02/02 14:48:32;;;;;;;;;;;9.10;99.90;;;;;;6158410;23;19919;-84
2022/02/02 14:51:14;;;;;;;;;;;9.10;99.90;;;;;;6206512;23;20363;-84
2022/02/02 14:53:57;;;;;;;;;;;9.10;99.90;;;;;;6182175;23;20337;-85
2022/02/02 14:56:47;;;;;;;;;;;9.10;99.90;;;;;;6193571;23;19903;-84
2022/02/02 15:29:15;;;;;;;;;;;9.70;99.90;;;;;;6189366;23;19916;-83
2022/02/02 15:31:43;;;;;;;;;;;9.60;99.90;;;;;;6188087;23;20090;-84
2022/02/02 15:34:19;;;;;;;;;;;9.50;99.90;;;;;;6210406;23;20323;-83
2022/02/02 15:39:21;;;;;;;;;;;9.40;99.90;;;;;;6181801;23;19945;-83
2022/02/02 15:42:15;;;;;;;;;;;9.40;99.90;;;;;;6157023;23;20112;-84
2022/02/02 16:03:10;;;;;;;;;;;8.10;99.90;;;;;;6185963;23;19916;-84
2022/02/02 16:08:09;;;;;;;;;;;7.90;99.90;;;;;;6212010;23;19922;-84
2022/02/02 16:11:03;;;;;;;;;;;7.80;99.90;;;;;;6211965;23;20038;-83
2022/02/02 16:13:44;;;;;;;;;;;7.70;99.90;;;;;;6186551;23;19923;-84
2022/02/02 16:18:39;;;;;;;;;;;7.50;99.90;;;;;;6210931;23;20423;-84
2022/02/02 16:37:16;;;;;;;;;;;6.90;99.90;;;;;;6186661;23;20364;-84
2022/02/02 16:39:54;;;;;;;;;;;6.80;99.90;;;;;;6190222;23;19961;-84
2022/02/02 16:45:04;;;;;;;;;;;6.60;99.90;;;;;;6190890;23;19916;-84
2022/02/02 16:47:30;;;;;;;;;;;6.60;99.90;;;;;;6212967;23;19931;-83
2022/02/02 16:49:55;;;;;;;;;;;6.50;99.90;;;;;;6162917;23;19919;-84
2022/02/02 16:52:24;;;;;;;;;;;6.40;99.90;;;;;;6161760;23;19915;-84
2022/02/02 16:54:50;;;;;;;;;;;6.30;99.90;;;;;;6162102;23;19928;-84
2022/02/02 17:30:52;;;;;;;;;;;5.40;99.90;;;;;;6186020;23;19919;-84
2022/02/02 17:32:48;;;;;;;;;;;5.40;99.90;;;;;;6178874;23;19920;-83
2022/02/02 17:40:20;;;;;;;;;;;5.20;99.90;;;;;;6211884;23;19922;-84
2022/02/02 18:02:50;;;;;;;;;;;5.00;99.90;;;;;;6190008;23;19916;-84
2022/02/02 18:20:45;;;;;;;;;;;5.00;99.90;;;;;;6212376;23;19965;-84
2022/02/02 18:23:30;;;;;;;;;;;5.00;99.90;;;;;;6188164;23;19946;-84
2022/02/02 18:26:11;;;;;;;;;;;5.00;99.90;;;;;;6189263;23;19962;-84
2022/02/02 18:28:57;;;;;;;;;;;5.00;99.90;;;;;;6163050;23;19989;-84
2022/02/02 18:34:12;;;;;;;;;;;5.00;99.90;;;;;;6186515;23;20387;-84
2022/02/02 18:40:15;;;;;;;;;;;4.90;99.90;;;;;;6186188;23;19919;-84
2022/02/02 18:44:40;;;;;;;;;;;4.90;99.90;;;;;;6207314;23;20038;-84
2022/02/02 20:02:24;;;;;;;;;;;4.30;99.90;;;;;;6207674;23;19920;-83
2022/02/02 20:07:43;;;;;;;;;;;4.30;99.90;;;;;;6184930;23;19986;-84
2022/02/02 20:12:39;;;;;;;;;;;4.30;99.90;;;;;;6205772;23;19916;-84
2022/02/02 20:15:06;;;;;;;;;;;4.30;99.90;;;;;;6204157;23;19916;-84
2022/02/02 20:17:33;;;;;;;;;;;4.20;99.90;;;;;;6181521;23;20006;-84
2022/02/02 20:20:11;;;;;;;;;;;4.20;99.90;;;;;;6156531;23;19922;-84
2022/02/02 20:22:36;;;;;;;;;;;4.30;99.90;;;;;;6180550;23;20409;-84
2022/02/02 20:25:03;;;;;;;;;;;4.30;99.90;;;;;;6177066;23;19954;-84
2022/02/02 20:27:31;;;;;;;;;;;4.40;99.90;;;;;;6177489;23;19950;-84
2022/02/02 20:29:58;;;;;;;;;;;4.40;99.90;;;;;;6182205;23;20403;-84
2022/02/02 20:32:24;;;;;;;;;;;4.40;99.90;;;;;;6181686;23;19920;-84
2022/02/02 20:34:51;;;;;;;;;;;4.40;99.90;;;;;;6176668;23;19919;-84
2022/02/02 20:37:19;;;;;;;;;;;4.50;99.90;;;;;;6179149;23;20002;-83
2022/02/02 20:40:05;;;;;;;;;;;4.50;99.90;;;;;;6158787;23;19919;-84
2022/02/02 21:06:27;;;;;;;;;;;4.80;99.90;;;;;;6183954;23;19965;-85
2022/02/02 21:09:06;;;;;;;;;;;4.80;99.90;;;;;;6160074;23;20340;-84
2022/02/02 21:11:50;;;;;;;;;;;4.90;99.90;;;;;;6160284;23;19926;-84
2022/02/02 21:14:18;;;;;;;;;;;4.90;99.90;;;;;;6163806;23;19919;-83
2022/02/02 21:16:46;;;;;;;;;;;5.00;99.90;;;;;;6160457;23;19959;-84
2022/02/02 21:19:22;;;;;;;;;;;5.00;99.90;;;;;;6159578;23;19915;-84
2022/02/02 21:21:55;;;;;;;;;;;5.00;99.90;;;;;;6162638;23;20618;-83
2022/02/02 21:27:14;;;;;;;;;;;5.20;99.90;;;;;;6183993;23;19920;-84
2022/02/02 21:29:35;;;;;;;;;;;5.20;99.90;;;;;;6186294;23;19920;-83
2022/02/02 21:32:01;;;;;;;;;;;5.20;99.90;;;;;;6172953;23;20051;-83
2022/02/02 21:34:27;;;;;;;;;;;5.30;99.90;;;;;;6148581;23;19920;-83
2022/02/02 21:36:54;;;;;;;;;;;5.30;99.90;;;;;;6076857;23;19917;-84
2022/02/02 21:39:22;;;;;;;;;;;5.30;99.90;;;;;;6118111;23;20303;-84
2022/02/02 21:41:50;;;;;;;;;;;5.40;99.90;;;;;;6094632;23;20274;-83
2022/02/02 21:44:16;;;;;;;;;;;5.40;99.90;;;;;;6098003;23;20345;-85
2022/02/02 21:46:42;;;;;;;;;;;5.40;99.90;;;;;;6096590;23;19917;-83
2022/02/02 21:49:15;;;;;;;;;;;5.40;99.90;;;;;;6098162;23;20240;-82
2022/02/02 21:51:51;;;;;;;;;;;5.40;99.90;;;;;;6099613;23;20032;-83
2022/02/02 21:54:17;;;;;;;;;;;5.40;99.90;;;;;;6094400;23;19928;-83
2022/02/02 21:56:42;;;;;;;;;;;5.40;99.90;;;;;;6093926;23;19916;-85
2022/02/02 21:59:08;;;;;;;;;;;5.40;99.90;;;;;;6119255;23;20409;-85
2022/02/02 22:01:33;;;;;;;;;;;5.50;99.90;;;;;;6093681;23;19932;-84
2022/02/02 22:03:59;;;;;;;;;;;5.50;99.90;;;;;;6093917;23;19954;-84
2022/02/02 22:06:24;;;;;;;;;;;5.50;99.90;;;;;;6094101;23;19926;-83
2022/02/02 22:08:50;;;;;;;;;;;5.50;99.90;;;;;;6094408;23;20323;-83
2022/02/02 22:11:16;;;;;;;;;;;5.50;99.90;;;;;;6095066;23;19928;-85
2022/02/02 22:13:46;;;;;;;;;;;5.60;99.90;;;;;;6120788;23;19963;-83
2022/02/02 22:16:17;;;;;;;;;;;5.60;99.90;;;;;;6121518;23;19917;-84
2022/02/02 22:18:44;;;;;;;;;;;5.60;99.90;;;;;;6098339;23;19947;-83
2022/02/02 22:21:10;;;;;;;;;;;5.70;99.90;;;;;;6097226;23;19920;-84
2022/02/02 22:23:38;;;;;;;;;;;5.70;99.90;;;;;;6118124;23;19927;-84
2022/02/02 22:26:04;;;;;;;;;;;5.70;99.90;;;;;;6094082;23;19916;-85
2022/02/02 22:28:29;;;;;;;;;;;5.80;99.90;;;;;;6118678;23;19921;-86
2022/02/02 22:30:55;;;;;;;;;;;5.80;99.90;;;;;;6119027;23;20376;-83
2022/02/02 22:33:21;;;;;;;;;;;5.90;99.90;;;;;;6093776;23;19921;-84
2022/02/02 22:35:46;;;;;;;;;;;5.90;99.90;;;;;;6093584;23;19924;-84
2022/02/02 22:38:12;;;;;;;;;;;6.00;99.90;;;;;;6094041;23;19924;-84
2022/02/02 22:40:39;;;;;;;;;;;6.00;99.90;;;;;;6095453;23;19948;-83
2022/02/02 22:43:06;;;;;;;;;;;6.10;99.90;;;;;;6117740;23;19921;-84
2022/02/02 22:45:33;;;;;;;;;;;6.10;99.90;;;;;;6118603;23;19971;-84
2022/02/02 22:47:58;;;;;;;;;;;6.20;99.90;;;;;;6094793;23;20534;-82
2022/02/02 22:50:24;;;;;;;;;;;6.20;99.90;;;;;;6095050;23;19951;-84
2022/02/02 22:52:56;;;;;;;;;;;6.30;99.90;;;;;;6094970;23;19972;-86
2022/02/02 22:55:36;;;;;;;;;;;6.30;99.90;;;;;;6144325;23;20337;-87
2022/02/02 22:58:03;;;;;;;;;;;6.30;99.90;;;;;;6121049;23;19917;-82
2022/02/02 23:00:33;;;;;;;;;;;6.40;99.90;;;;;;6119429;23;20019;-85
2022/02/02 23:03:01;;;;;;;;;;;6.40;99.90;;;;;;6119210;23;20373;-84
2022/02/02 23:05:42;;;;;;;;;;;6.40;99.90;;;;;;6121339;23;19923;-84
2022/02/02 23:08:10;;;;;;;;;;;6.50;99.90;;;;;;6099073;23;20000;-85
2022/02/02 23:10:37;;;;;;;;;;;6.50;99.90;;;;;;6090917;23;19926;-85
2022/02/02 23:13:03;;;;;;;;;;;6.50;99.90;;;;;;6092131;23;19924;-86
2022/02/02 23:15:38;;;;;;;;;;;6.50;99.90;;;;;;6118385;23;19955;-84
2022/02/02 23:18:14;;;;;;;;;;;6.50;99.90;;;;;;6121731;23;19916;-85
2022/02/02 23:20:40;;;;;;;;;;;6.60;99.90;;;;;;6119728;23;20543;-84
2022/02/02 23:23:06;;;;;;;;;;;6.60;99.90;;;;;;6145230;23;19921;-83
2022/02/02 23:25:34;;;;;;;;;;;6.60;99.90;;;;;;6121263;23;20261;-84
2022/02/02 23:28:02;;;;;;;;;;;6.60;99.90;;;;;;6125603;23;19916;-82
2022/02/02 23:30:27;;;;;;;;;;;6.60;99.90;;;;;;6100522;23;20310;-84
2022/02/02 23:32:54;;;;;;;;;;;6.60;99.90;;;;;;6099651;23;20012;-83
2022/02/02 23:35:20;;;;;;;;;;;6.70;99.90;;;;;;6123160;23;20313;-84
2022/02/02 23:37:46;;;;;;;;;;;6.70;99.90;;;;;;6121674;23;19920;-84
2022/02/02 23:40:12;;;;;;;;;;;6.70;99.90;;;;;;6121830;23;19948;-82
2022/02/02 23:42:38;;;;;;;;;;;6.70;99.90;;;;;;6122109;23;19923;-85
2022/02/02 23:45:05;;;;;;;;;;;6.70;99.90;;;;;;6122416;23;19951;-83
2022/02/02 23:47:32;;;;;;;;;;;6.70;99.90;;;;;;6121923;23;20069;-87
2022/02/02 23:50:02;;;;;;;;;;;6.70;99.90;;;;;;6119309;23;19917;-84
2022/02/02 23:52:45;;;;;;;;;;;6.70;99.90;;;;;;6097372;23;19921;-82
2022/02/02 23:55:16;;;;;;;;;;;6.70;99.90;;;;;;6120089;23;19932;-86
2022/02/02 23:58:03;;;;;;;;;;;6.80;99.90;;;;;;6122908;23;19921;-84
